createdAt,value
2023-05-06T00:02:09.549Z,8.82
2023-05-06T00:04:40.634Z,8.81
2023-05-06T00:07:10.743Z,8.86
2023-05-06T00:09:40.909Z,8.80
2023-05-06T00:12:10.947Z,8.78
2023-05-06T00:14:41.147Z,8.73
2023-05-06T00:17:11.398Z,8.73
2023-05-06T00:19:42.015Z,8.72
2023-05-06T00:22:12.359Z,8.74
2023-05-06T00:24:42.253Z,8.70
2023-05-06T00:27:12.527Z,8.67
2023-05-06T00:29:55.661Z,8.64
2023-05-06T00:32:25.637Z,8.56
2023-05-06T00:34:55.537Z,8.56
2023-05-06T00:37:25.740Z,8.53
2023-05-06T00:39:55.867Z,8.50
2023-05-06T00:42:25.917Z,8.48
2023-05-06T00:44:55.751Z,8.49
2023-05-06T00:47:26.467Z,8.44
2023-05-06T00:49:56.563Z,8.44
2023-05-06T00:52:26.496Z,8.41
2023-05-06T00:54:57.349Z,8.41
2023-05-06T00:57:27.416Z,8.35
2023-05-06T00:59:57.415Z,8.27
2023-05-06T01:02:39.613Z,8.22
2023-05-06T01:05:18.321Z,8.22
2023-05-06T01:07:59.873Z,8.24
2023-05-06T01:10:37.804Z,8.24
2023-05-06T01:13:15.425Z,8.24
2023-05-06T01:15:48.032Z,8.21
2023-05-06T01:18:22.270Z,8.18
2023-05-06T01:20:53.981Z,8.19
2023-05-06T01:23:23.759Z,8.16
2023-05-06T01:25:53.985Z,8.15
2023-05-06T01:28:23.951Z,8.11
2023-05-06T01:31:01.525Z,8.10
2023-05-06T01:33:38.633Z,8.08
2023-05-06T01:36:16.569Z,8.05
2023-05-06T01:38:53.378Z,8.02
2023-05-06T01:41:25.413Z,8.00
2023-05-06T01:43:55.592Z,7.97
2023-05-06T01:46:29.102Z,8.00
2023-05-06T01:49:05.422Z,7.96
2023-05-06T01:51:35.813Z,7.94
2023-05-06T01:54:06.205Z,7.90
2023-05-06T01:56:36.398Z,7.93
2023-05-06T01:59:06.943Z,7.96
2023-05-06T02:01:37.056Z,7.95
2023-05-06T02:04:07.353Z,7.88
2023-05-06T02:06:37.492Z,7.87
2023-05-06T02:09:08.150Z,7.85
2023-05-06T02:11:42.967Z,7.84
2023-05-06T02:14:13.149Z,7.82
2023-05-06T02:16:43.264Z,7.80
2023-05-06T02:19:13.362Z,7.76
2023-05-06T02:21:43.312Z,7.78
2023-05-06T02:24:15.511Z,7.73
2023-05-06T02:26:45.384Z,7.76
2023-05-06T02:29:15.291Z,7.74
2023-05-06T02:31:45.282Z,7.73
2023-05-06T02:34:15.147Z,7.69
2023-05-06T02:36:46.401Z,7.72
2023-05-06T02:39:16.394Z,7.68
2023-05-06T02:41:46.193Z,7.65
2023-05-06T02:44:16.121Z,7.62
2023-05-06T02:46:46.132Z,7.69
2023-05-06T02:49:16.172Z,7.73
2023-05-06T02:51:46.776Z,7.66
2023-05-06T02:54:16.607Z,7.67
2023-05-06T02:56:46.561Z,7.67
2023-05-06T02:59:17.428Z,7.68
2023-05-06T03:01:47.945Z,7.64
2023-05-06T03:04:18.251Z,7.62
2023-05-06T03:06:48.202Z,7.59
2023-05-06T03:09:18.260Z,7.55
2023-05-06T03:11:48.559Z,7.57
2023-05-06T03:14:19.013Z,7.56
2023-05-06T03:16:48.891Z,7.53
2023-05-06T03:19:19.345Z,7.53
2023-05-06T03:21:49.331Z,7.49
2023-05-06T03:24:21.322Z,7.49
2023-05-06T03:26:51.684Z,7.50
2023-05-06T03:29:22.695Z,7.54
2023-05-06T03:31:52.784Z,7.54
2023-05-06T03:34:25.149Z,7.54
2023-05-06T03:36:55.148Z,7.56
2023-05-06T03:39:25.221Z,7.60
2023-05-06T03:41:56.069Z,7.60
2023-05-06T03:44:26.646Z,7.60
2023-05-06T03:46:56.518Z,7.59
2023-05-06T03:49:26.735Z,7.64
2023-05-06T03:51:56.799Z,7.63
2023-05-06T03:54:30.839Z,7.63
2023-05-06T03:57:01.070Z,7.66
2023-05-06T03:59:31.360Z,7.65
2023-05-06T04:02:01.937Z,7.69
2023-05-06T04:04:32.591Z,7.70
2023-05-06T04:07:03.733Z,7.75
2023-05-06T04:09:34.364Z,7.77
2023-05-06T04:12:07.404Z,7.78
2023-05-06T04:14:38.149Z,7.77
2023-05-06T04:17:08.679Z,7.82
2023-05-06T04:19:38.970Z,7.82
2023-05-06T04:22:08.974Z,7.84
2023-05-06T04:24:41.509Z,7.83
2023-05-06T04:27:12.516Z,7.87
2023-05-06T04:29:46.658Z,7.95
2023-05-06T04:32:17.707Z,7.95
2023-05-06T04:34:48.399Z,7.99
2023-05-06T04:37:22.820Z,8.05
2023-05-06T04:40:05.676Z,8.01
2023-05-06T04:42:36.356Z,7.98
2023-05-06T04:45:13.037Z,8.04
2023-05-06T04:47:47.132Z,8.00
2023-05-06T04:50:17.499Z,8.07
2023-05-06T04:52:47.572Z,7.99
2023-05-06T04:55:18.868Z,8.07
2023-05-06T04:57:54.188Z,8.09
2023-05-06T05:00:25.918Z,8.07
2023-05-06T05:02:57.032Z,8.08
2023-05-06T05:05:28.281Z,8.11
2023-05-06T05:07:58.796Z,8.13
2023-05-06T05:10:30.046Z,8.13
2023-05-06T05:13:00.635Z,8.21
2023-05-06T05:15:31.606Z,8.25
2023-05-06T05:18:01.752Z,8.37
2023-05-06T05:20:32.502Z,8.37
2023-05-06T05:23:03.846Z,8.38
2023-05-06T05:25:35.233Z,8.37
2023-05-06T05:28:05.302Z,8.43
2023-05-06T05:30:35.996Z,8.43
2023-05-06T05:33:06.059Z,8.46
2023-05-06T05:35:36.702Z,8.54
2023-05-06T05:38:07.309Z,8.55
2023-05-06T05:40:38.999Z,8.54
2023-05-06T05:43:09.550Z,8.55
2023-05-06T05:45:41.160Z,8.54
2023-05-06T05:48:12.261Z,8.65
2023-05-06T05:50:42.375Z,8.80
2023-05-06T05:53:13.042Z,8.87
2023-05-06T05:55:44.521Z,9.01
2023-05-06T05:58:14.631Z,9.29
2023-05-06T06:00:45.454Z,9.30
2023-05-06T06:03:15.909Z,9.27
2023-05-06T06:05:48.940Z,9.26
2023-05-06T06:08:19.810Z,9.20
2023-05-06T06:10:50.455Z,9.17
2023-05-06T06:13:25.259Z,9.25
2023-05-06T06:15:57.463Z,9.35
2023-05-06T06:18:27.707Z,9.35
2023-05-06T06:20:57.891Z,9.35
2023-05-06T06:23:27.993Z,9.36
2023-05-06T06:25:58.538Z,9.38
2023-05-06T06:28:28.338Z,9.42
2023-05-06T06:30:58.489Z,9.42
2023-05-06T06:33:29.212Z,9.40
2023-05-06T06:35:59.177Z,9.39
2023-05-06T06:38:29.323Z,9.44
2023-05-06T06:40:59.150Z,9.45
2023-05-06T06:43:29.166Z,9.45
2023-05-06T06:46:01.290Z,9.42
2023-05-06T06:48:32.068Z,9.35
2023-05-06T06:51:02.019Z,9.43
2023-05-06T06:53:32.641Z,9.47
2023-05-06T06:56:02.656Z,9.50
2023-05-06T06:58:34.789Z,9.51
2023-05-06T07:01:05.376Z,9.62
2023-05-06T07:03:35.595Z,9.75
2023-05-06T07:06:06.422Z,9.81
2023-05-06T07:08:37.715Z,9.91
2023-05-06T07:11:07.823Z,10.04
2023-05-06T07:13:38.514Z,10.40
2023-05-06T07:16:08.537Z,10.56
2023-05-06T07:18:38.428Z,10.73
2023-05-06T07:21:08.469Z,10.90
2023-05-06T07:23:38.353Z,10.88
2023-05-06T07:26:09.232Z,10.72
2023-05-06T07:28:39.189Z,10.70
2023-05-06T07:31:09.279Z,10.86
2023-05-06T07:33:40.618Z,10.98
2023-05-06T07:36:10.954Z,10.85
2023-05-06T07:38:44.208Z,10.83
2023-05-06T07:41:14.676Z,10.94
2023-05-06T07:43:45.608Z,11.00
2023-05-06T07:46:15.538Z,11.17
2023-05-06T07:48:45.785Z,11.21
2023-05-06T07:51:17.891Z,11.25
2023-05-06T07:53:48.306Z,11.17
2023-05-06T07:56:19.307Z,11.38
2023-05-06T07:58:49.561Z,11.34
2023-05-06T08:01:19.718Z,11.33
2023-05-06T08:03:52.764Z,11.40
2023-05-06T08:06:23.177Z,11.22
2023-05-06T08:08:53.530Z,11.10
2023-05-06T08:11:23.995Z,11.22
2023-05-06T08:13:54.235Z,11.40
2023-05-06T08:16:25.818Z,11.41
2023-05-06T08:18:56.212Z,11.46
2023-05-06T08:21:26.753Z,11.69
2023-05-06T08:23:56.870Z,11.87
2023-05-06T08:26:27.208Z,11.94
2023-05-06T08:28:59.112Z,12.06
2023-05-06T08:31:29.883Z,12.10
2023-05-06T08:34:00.431Z,12.08
2023-05-06T08:36:30.632Z,12.22
2023-05-06T08:39:00.583Z,12.40
2023-05-06T08:41:33.193Z,12.48
2023-05-06T08:44:03.853Z,12.60
2023-05-06T08:46:33.885Z,12.59
2023-05-06T08:49:03.968Z,12.52
2023-05-06T08:51:34.022Z,12.30
2023-05-06T08:54:04.888Z,12.43
2023-05-06T08:56:37.007Z,12.44
2023-05-06T08:59:08.936Z,12.23
2023-05-06T09:01:39.069Z,12.28
2023-05-06T09:04:10.642Z,12.33
2023-05-06T09:06:41.504Z,12.44
2023-05-06T09:09:12.923Z,12.39
2023-05-06T09:11:43.177Z,12.53
2023-05-06T09:14:15.613Z,12.55
2023-05-06T09:16:47.248Z,12.55
2023-05-06T09:19:18.129Z,12.53
2023-05-06T09:21:49.860Z,12.57
2023-05-06T09:24:22.779Z,12.50
2023-05-06T09:26:55.425Z,12.57
2023-05-06T09:29:25.696Z,12.74
2023-05-06T09:31:56.124Z,12.78
2023-05-06T09:34:27.838Z,12.82
2023-05-06T09:36:58.475Z,12.87
2023-05-06T09:39:28.898Z,12.95
2023-05-06T09:41:59.845Z,12.96
2023-05-06T09:44:30.739Z,13.02
2023-05-06T09:47:02.055Z,13.07
2023-05-06T09:49:32.094Z,13.12
2023-05-06T09:52:02.177Z,13.10
2023-05-06T09:54:33.702Z,13.07
2023-05-06T09:57:05.136Z,13.16
2023-05-06T09:59:36.491Z,13.25
2023-05-06T10:02:08.582Z,13.40
2023-05-06T10:04:40.992Z,13.54
2023-05-06T10:07:12.517Z,13.58
2023-05-06T10:09:43.485Z,13.63
2023-05-06T10:12:15.709Z,13.71
2023-05-06T10:14:45.938Z,13.77
2023-05-06T10:17:19.024Z,13.75
2023-05-06T10:19:51.624Z,13.97
2023-05-06T10:22:31.249Z,14.15
2023-05-06T10:25:05.757Z,14.15
2023-05-06T10:27:40.395Z,14.34
2023-05-06T10:30:14.730Z,14.55
2023-05-06T10:32:46.451Z,14.58
2023-05-06T10:35:27.233Z,14.82
2023-05-06T10:38:03.883Z,14.73
2023-05-06T10:40:34.248Z,14.90
2023-05-06T10:43:29.082Z,14.97
2023-05-06T10:46:04.128Z,15.03
2023-05-06T10:48:35.330Z,14.96
2023-05-06T10:51:28.307Z,15.17
2023-05-06T10:54:06.515Z,15.13
2023-05-06T10:56:37.786Z,15.06
2023-05-06T10:59:09.726Z,15.11
2023-05-06T11:01:42.387Z,15.03
2023-05-06T11:04:15.591Z,15.00
2023-05-06T11:06:48.206Z,15.21
2023-05-06T11:09:22.195Z,15.31
2023-05-06T11:12:00.136Z,15.39
2023-05-06T11:14:35.208Z,15.44
2023-05-06T11:17:06.891Z,15.30
2023-05-06T11:19:38.267Z,15.38
2023-05-06T11:22:08.701Z,15.32
2023-05-06T11:24:42.080Z,15.29
2023-05-06T11:27:19.432Z,15.17
2023-05-06T11:29:49.203Z,14.99
2023-05-06T11:32:25.926Z,14.92
2023-05-06T11:35:44.335Z,14.92
2023-05-06T11:39:24.549Z,14.94
2023-05-06T11:43:05.726Z,15.01
2023-05-06T11:46:33.612Z,14.98
2023-05-06T11:49:16.419Z,14.87
2023-05-06T11:51:58.178Z,14.92
2023-05-06T11:54:29.249Z,14.92
2023-05-06T11:56:59.020Z,14.77
2023-05-06T12:00:26.048Z,14.57
2023-05-06T12:03:52.041Z,14.27
2023-05-06T12:14:36.191Z,13.53
2023-05-06T12:17:18.221Z,13.46
2023-05-06T12:19:52.401Z,13.45
2023-05-06T12:22:31.532Z,13.34
2023-05-06T12:25:15.184Z,13.28
2023-05-06T12:27:45.224Z,13.17
2023-05-06T12:30:15.868Z,13.06
2023-05-06T12:33:49.277Z,13.00
2023-05-06T12:37:54.116Z,13.10
2023-05-06T12:41:35.760Z,13.03
2023-05-06T12:45:16.747Z,12.94
2023-05-06T12:48:49.590Z,12.94
2023-05-06T12:59:39.622Z,12.75
2023-05-06T13:02:09.962Z,12.50
2023-05-06T13:04:40.472Z,12.43
2023-05-06T13:07:10.429Z,12.49
2023-05-06T13:09:40.476Z,12.48
2023-05-06T13:12:10.629Z,12.46
2023-05-06T13:14:40.693Z,12.44
2023-05-06T13:17:10.819Z,12.43
2023-05-06T13:19:41.011Z,12.42
2023-05-06T13:22:11.093Z,12.39
2023-05-06T13:24:41.209Z,12.26
2023-05-06T13:27:11.339Z,12.25
2023-05-06T13:29:41.458Z,12.22
2023-05-06T13:32:14.022Z,12.11
2023-05-06T13:34:44.189Z,12.04
2023-05-06T13:37:14.370Z,12.05
2023-05-06T13:39:44.370Z,12.02
2023-05-06T13:42:14.476Z,11.91
2023-05-06T13:44:44.580Z,11.89
2023-05-06T13:47:15.130Z,11.85
2023-05-06T13:49:45.515Z,11.87
2023-05-06T13:52:15.561Z,11.79
2023-05-06T13:54:45.933Z,11.75
2023-05-06T13:57:16.036Z,11.72
2023-05-06T13:59:49.233Z,11.76
2023-05-06T14:02:19.586Z,11.85
2023-05-06T14:04:49.653Z,11.93
2023-05-06T14:07:19.997Z,12.00
2023-05-06T14:13:31.370Z,11.95
2023-05-06T14:16:01.365Z,11.95
2023-05-06T14:18:34.828Z,11.83
2023-05-06T14:21:05.656Z,11.69
2023-05-06T14:23:36.258Z,11.60
2023-05-06T14:26:06.267Z,11.65
2023-05-06T14:28:36.178Z,11.61
2023-05-06T14:39:02.703Z,11.69
2023-05-06T14:42:22.350Z,11.74
2023-05-06T14:45:45.016Z,11.66
2023-05-06T14:49:12.661Z,11.73
2023-05-06T14:52:54.997Z,11.86
2023-05-06T14:55:59.370Z,11.91
2023-05-06T14:58:29.251Z,11.85
2023-05-06T15:00:59.368Z,11.85
2023-05-06T15:03:29.365Z,11.90
2023-05-06T15:05:59.424Z,11.91
2023-05-06T15:08:29.375Z,11.85
2023-05-06T15:11:00.190Z,11.86
2023-05-06T15:13:31.079Z,11.88
2023-05-06T15:16:01.214Z,11.82
2023-05-06T15:18:31.248Z,11.78
2023-05-06T15:21:01.343Z,11.87
2023-05-06T15:23:32.586Z,11.91
2023-05-06T15:26:02.454Z,11.90
2023-05-06T15:28:34.342Z,11.91
2023-05-06T15:31:04.512Z,11.90
2023-05-06T15:33:34.540Z,11.91
2023-05-06T15:36:04.855Z,11.94
2023-05-06T15:38:59.914Z,12.03
2023-05-06T15:41:32.149Z,12.09
2023-05-06T15:44:06.509Z,11.99
2023-05-06T15:46:40.101Z,11.98
2023-05-06T15:49:45.622Z,12.08
2023-05-06T15:52:04.365Z,12.20
2023-05-06T15:54:37.326Z,12.26
2023-05-06T15:57:10.240Z,12.30
2023-05-06T15:59:44.273Z,12.33
2023-05-06T16:04:53.165Z,12.35
2023-05-06T16:07:25.324Z,12.36
2023-05-06T16:09:58.039Z,12.39
2023-05-06T16:12:32.557Z,12.44
2023-05-06T16:15:04.429Z,12.47
2023-05-06T16:17:37.628Z,12.49
2023-05-06T16:20:12.914Z,12.49
2023-05-06T16:22:52.522Z,12.54
2023-05-06T16:25:23.431Z,12.56
2023-05-06T16:27:56.046Z,12.58
2023-05-06T16:30:26.794Z,12.59
2023-05-06T16:32:57.117Z,12.61
2023-05-06T16:35:31.202Z,12.61
2023-05-06T16:38:07.889Z,12.64
2023-05-06T16:40:48.415Z,12.69
2023-05-06T16:43:26.159Z,12.69
2023-05-06T16:45:58.586Z,12.71
2023-05-06T16:48:31.688Z,12.71
2023-05-06T16:51:02.358Z,12.72
2023-05-06T16:53:35.802Z,12.69
2023-05-06T16:56:08.823Z,12.69
2023-05-06T16:58:40.684Z,12.68
2023-05-06T17:01:12.102Z,12.68
2023-05-06T17:03:44.842Z,12.68
2023-05-06T17:06:19.730Z,12.66
2023-05-06T17:08:51.389Z,12.61
2023-05-06T17:11:21.353Z,12.62
2023-05-06T17:13:55.242Z,12.58
2023-05-06T17:16:25.554Z,12.55
2023-05-06T17:18:56.768Z,12.53
2023-05-06T17:21:27.523Z,12.50
2023-05-06T17:24:01.463Z,12.49
2023-05-06T17:26:33.991Z,12.47
2023-05-06T17:29:06.074Z,12.45
2023-05-06T17:31:38.201Z,12.41
2023-05-06T17:34:10.035Z,12.38
2023-05-06T17:36:42.861Z,12.38
2023-05-06T17:39:15.832Z,12.37
2023-05-06T17:41:46.363Z,12.31
2023-05-06T17:44:17.900Z,12.22
2023-05-06T17:46:49.770Z,12.23
2023-05-06T17:49:23.279Z,12.25
2023-05-06T17:51:56.741Z,12.25
2023-05-06T17:54:31.870Z,12.19
2023-05-06T17:57:03.467Z,12.18
2023-05-06T17:59:35.550Z,12.17
2023-05-06T18:02:09.977Z,12.19
2023-05-06T18:04:41.760Z,12.18
2023-05-06T18:07:11.974Z,12.18
2023-05-06T18:09:42.059Z,12.16
2023-05-06T18:12:12.077Z,12.18
2023-05-06T18:14:42.269Z,12.16
2023-05-06T18:17:12.208Z,12.11
2023-05-06T18:19:42.807Z,12.07
2023-05-06T18:22:12.807Z,12.06
2023-05-06T18:24:42.829Z,12.07
2023-05-06T18:27:13.051Z,12.05
2023-05-06T18:29:43.039Z,12.00
2023-05-06T18:32:13.075Z,11.89
2023-05-06T18:34:43.534Z,11.88
2023-05-06T18:37:14.734Z,11.84
2023-05-06T18:39:45.798Z,11.82
2023-05-06T18:42:17.025Z,11.75
2023-05-06T18:44:50.707Z,11.74
2023-05-06T18:47:21.249Z,11.68
2023-05-06T18:49:53.019Z,11.67
2023-05-06T18:52:23.528Z,11.63
2023-05-06T18:54:54.322Z,11.59
2023-05-06T18:57:26.080Z,11.57
2023-05-06T18:59:56.815Z,11.52
2023-05-06T19:02:26.884Z,11.50
2023-05-06T19:04:58.188Z,11.51
2023-05-06T19:07:28.155Z,11.45
2023-05-06T19:09:59.137Z,11.43
2023-05-06T19:12:29.916Z,11.41
2023-05-06T19:15:00.130Z,11.41
2023-05-06T19:17:30.510Z,11.41
2023-05-06T19:20:04.857Z,11.39
2023-05-06T19:22:36.538Z,11.41
2023-05-06T19:25:09.709Z,11.40
2023-05-06T19:27:39.967Z,11.42
2023-05-06T19:30:11.884Z,11.38
2023-05-06T19:32:44.081Z,11.36
2023-05-06T19:35:16.373Z,11.29
2023-05-06T19:37:46.664Z,11.29
2023-05-06T19:40:18.544Z,11.29
2023-05-06T19:42:54.502Z,11.29
2023-05-06T19:45:24.432Z,11.29
2023-05-06T19:47:54.368Z,11.28
2023-05-06T19:50:24.688Z,11.26
2023-05-06T19:52:54.943Z,11.27
2023-05-06T19:55:29.917Z,11.26
2023-05-06T19:58:05.686Z,11.23
2023-05-06T20:00:42.244Z,11.22
2023-05-06T20:03:12.764Z,11.21
2023-05-06T20:05:43.081Z,11.15
2023-05-06T20:08:13.462Z,11.10
2023-05-06T20:10:45.374Z,11.10
2023-05-06T20:13:17.398Z,11.10
2023-05-06T20:15:48.276Z,11.10
2023-05-06T20:18:18.242Z,11.10
2023-05-06T20:20:48.428Z,11.10
2023-05-06T20:23:18.858Z,11.08
2023-05-06T20:25:48.868Z,11.05
2023-05-06T20:28:21.255Z,10.95
2023-05-06T20:31:00.679Z,10.83
2023-05-06T20:33:31.497Z,10.77
2023-05-06T20:36:01.872Z,10.71
2023-05-06T20:38:32.007Z,10.69
2023-05-06T20:41:02.697Z,10.61
2023-05-06T20:43:34.876Z,10.60
2023-05-06T20:46:05.107Z,10.53
2023-05-06T20:48:35.000Z,10.50
2023-05-06T20:51:05.072Z,10.45
2023-05-06T20:53:35.080Z,10.45
2023-05-06T20:56:07.080Z,10.42
2023-05-06T20:58:36.935Z,10.37
2023-05-06T21:01:06.794Z,10.29
2023-05-06T21:03:36.894Z,10.16
2023-05-06T21:06:07.045Z,10.12
2023-05-06T21:08:37.039Z,10.14
2023-05-06T21:11:06.977Z,10.13
2023-05-06T21:13:37.013Z,10.10
2023-05-06T21:16:07.708Z,10.09
2023-05-06T21:18:38.086Z,10.07
2023-05-06T21:21:07.970Z,9.97
2023-05-06T21:23:37.839Z,9.94
2023-05-06T21:26:07.748Z,9.85
2023-05-06T21:28:38.175Z,9.76
2023-05-06T21:31:08.633Z,9.76
2023-05-06T21:33:38.467Z,9.71
2023-05-06T21:36:09.257Z,9.66
2023-05-06T21:38:39.502Z,9.61
2023-05-06T21:41:09.484Z,9.54
2023-05-06T21:43:39.618Z,9.48
2023-05-06T21:46:09.540Z,9.49
2023-05-06T21:48:39.665Z,9.44
2023-05-06T21:51:09.447Z,9.45
2023-05-06T21:53:39.608Z,9.45
2023-05-06T21:56:09.429Z,9.39
2023-05-06T21:58:39.359Z,9.40
2023-05-06T22:01:09.352Z,9.40
2023-05-06T22:03:39.654Z,9.43
2023-05-06T22:06:21.962Z,9.44
2023-05-06T22:08:51.931Z,9.40
2023-05-06T22:11:23.552Z,9.39
2023-05-06T22:13:53.412Z,9.31
2023-05-06T22:16:23.440Z,9.32
2023-05-06T22:18:53.721Z,9.34
2023-05-06T22:21:23.675Z,9.30
2023-05-06T22:23:53.752Z,9.30
2023-05-06T22:26:23.990Z,9.25
2023-05-06T22:28:54.110Z,9.25
2023-05-06T22:31:24.347Z,9.23
2023-05-06T22:33:57.323Z,9.13
2023-05-06T22:36:28.868Z,9.09
2023-05-06T22:38:59.097Z,9.06
2023-05-06T22:41:29.775Z,9.08
2023-05-06T22:44:00.910Z,9.08
2023-05-06T22:46:31.294Z,9.07
2023-05-06T22:49:01.433Z,9.06
2023-05-06T22:51:32.919Z,9.07
2023-05-06T22:54:02.998Z,9.08
2023-05-06T22:56:33.123Z,9.04
2023-05-06T22:59:03.416Z,9.04
2023-05-06T23:01:33.742Z,9.01
2023-05-06T23:04:03.890Z,9.01
2023-05-06T23:06:33.889Z,9.03
2023-05-06T23:09:05.308Z,9.02
2023-05-06T23:11:35.338Z,8.96
2023-05-06T23:14:06.344Z,8.94
2023-05-06T23:16:36.452Z,8.92
2023-05-06T23:19:06.384Z,8.91
2023-05-06T23:21:36.186Z,8.84
2023-05-06T23:24:07.068Z,8.77
2023-05-06T23:26:37.149Z,8.77
2023-05-06T23:29:07.213Z,8.73
2023-05-06T23:31:37.152Z,8.72
2023-05-06T23:34:07.127Z,8.71
2023-05-06T23:36:37.115Z,8.71
2023-05-06T23:39:07.911Z,8.63
2023-05-06T23:41:37.868Z,8.66
2023-05-06T23:44:07.743Z,8.67
2023-05-06T23:46:37.606Z,8.62
2023-05-06T23:49:07.682Z,8.57
2023-05-06T23:51:37.514Z,8.55
2023-05-06T23:54:07.475Z,8.58
2023-05-06T23:56:37.501Z,8.56
2023-05-06T23:59:07.507Z,8.54
